createdAt,value
2022-12-31T00:01:23.974Z,6.08
2022-12-31T00:03:52.198Z,6.45
2022-12-31T00:06:32.326Z,6.04
2022-12-31T00:09:02.718Z,5.38
2022-12-31T00:11:31.838Z,5.66
2022-12-31T00:14:00.129Z,6.01
2022-12-31T00:16:33.810Z,5.91
2022-12-31T00:19:01.559Z,5.98
2022-12-31T00:21:31.373Z,5.50
2022-12-31T00:23:59.077Z,5.61
2022-12-31T00:26:30.413Z,5.78
2022-12-31T00:28:59.623Z,5.82
2022-12-31T00:31:30.289Z,5.83
2022-12-31T00:33:59.002Z,5.49
2022-12-31T00:36:31.936Z,5.80
2022-12-31T00:39:02.321Z,6.42
2022-12-31T00:41:30.377Z,5.74
2022-12-31T00:43:57.987Z,5.89
2022-12-31T00:46:26.225Z,5.48
2022-12-31T00:48:54.135Z,5.11
2022-12-31T00:51:24.328Z,5.65
2022-12-31T00:53:52.166Z,6.02
2022-12-31T00:56:22.031Z,6.20
2022-12-31T00:58:50.549Z,5.61
2022-12-31T01:01:19.868Z,5.51
2022-12-31T01:03:49.521Z,5.81
2022-12-31T01:06:18.028Z,6.00
2022-12-31T01:08:48.767Z,6.02
2022-12-31T01:11:22.473Z,5.52
2022-12-31T01:13:57.204Z,5.56
2022-12-31T01:16:31.461Z,5.80
2022-12-31T01:19:04.995Z,5.67
2022-12-31T01:21:33.858Z,5.73
2022-12-31T01:24:01.897Z,5.70
2022-12-31T01:26:29.995Z,5.64
2022-12-31T01:28:57.851Z,5.55
2022-12-31T01:31:25.955Z,5.62
2022-12-31T01:33:54.025Z,5.26
2022-12-31T01:36:27.373Z,4.97
2022-12-31T01:38:57.583Z,5.25
2022-12-31T01:41:28.568Z,5.58
2022-12-31T01:43:58.718Z,5.46
2022-12-31T01:46:37.341Z,5.61
2022-12-31T01:49:14.086Z,5.35
2022-12-31T01:51:44.522Z,5.52
2022-12-31T01:54:16.028Z,5.65
2022-12-31T01:56:47.948Z,5.73
2022-12-31T01:59:18.737Z,5.18
2022-12-31T02:01:48.464Z,5.48
2022-12-31T02:04:16.698Z,4.98
2022-12-31T02:07:09.130Z,5.53
2022-12-31T02:09:39.937Z,5.71
2022-12-31T02:12:09.043Z,5.69
2022-12-31T02:14:42.093Z,5.72
2022-12-31T02:17:30.224Z,5.64
2022-12-31T02:20:40.238Z,5.20
2022-12-31T02:23:25.930Z,5.05
2022-12-31T02:26:05.126Z,5.19
2022-12-31T02:29:03.781Z,5.23
2022-12-31T02:31:40.453Z,5.20
2022-12-31T02:34:16.729Z,4.97
2022-12-31T02:36:47.560Z,5.32
2022-12-31T02:39:15.835Z,5.03
2022-12-31T02:41:52.483Z,5.38
2022-12-31T02:44:29.233Z,5.41
2022-12-31T02:47:09.064Z,5.40
2022-12-31T02:50:05.986Z,5.69
2022-12-31T02:52:45.472Z,5.28
2022-12-31T02:55:21.944Z,5.79
2022-12-31T02:57:52.538Z,5.48
2022-12-31T03:00:47.339Z,5.76
2022-12-31T03:03:15.019Z,5.65
2022-12-31T03:05:44.840Z,5.58
2022-12-31T03:08:20.345Z,5.70
2022-12-31T03:10:48.297Z,5.42
2022-12-31T03:13:15.896Z,5.47
2022-12-31T03:15:43.668Z,5.11
2022-12-31T03:18:14.829Z,5.45
2022-12-31T03:21:07.699Z,5.46
2022-12-31T03:23:50.290Z,5.48
2022-12-31T03:26:17.903Z,5.16
2022-12-31T03:28:48.681Z,5.66
2022-12-31T03:31:16.449Z,5.43
2022-12-31T03:33:44.183Z,5.33
2022-12-31T03:36:14.350Z,5.56
2022-12-31T03:38:42.558Z,5.77
2022-12-31T03:41:11.598Z,5.64
2022-12-31T03:43:39.518Z,5.54
2022-12-31T03:46:07.120Z,5.77
2022-12-31T03:48:34.851Z,5.24
2022-12-31T03:51:04.662Z,5.21
2022-12-31T03:53:32.270Z,5.39
2022-12-31T03:55:59.838Z,5.65
2022-12-31T03:58:27.780Z,5.27
2022-12-31T04:00:55.523Z,5.80
2022-12-31T04:03:23.542Z,5.50
2022-12-31T04:05:55.549Z,5.71
2022-12-31T04:08:23.991Z,5.89
2022-12-31T04:10:51.621Z,6.11
2022-12-31T04:13:19.376Z,6.15
2022-12-31T04:15:50.586Z,5.69
2022-12-31T04:18:18.128Z,5.88
2022-12-31T04:20:45.724Z,5.71
2022-12-31T04:23:13.670Z,5.78
2022-12-31T04:25:41.177Z,6.06
2022-12-31T04:28:11.791Z,5.76
2022-12-31T04:30:40.419Z,6.02
2022-12-31T04:33:08.032Z,6.50
2022-12-31T04:35:35.553Z,6.04
2022-12-31T04:38:03.645Z,6.33
2022-12-31T04:40:32.013Z,5.84
2022-12-31T04:42:59.597Z,6.15
2022-12-31T04:45:27.507Z,5.87
2022-12-31T04:47:55.084Z,5.90
2022-12-31T04:50:22.718Z,6.14
2022-12-31T04:52:50.634Z,6.22
2022-12-31T04:55:18.228Z,6.75
2022-12-31T04:57:45.992Z,6.59
2022-12-31T05:00:14.182Z,6.82
2022-12-31T05:02:42.001Z,6.81
2022-12-31T05:05:09.801Z,6.69
2022-12-31T05:07:37.607Z,6.56
2022-12-31T05:10:06.127Z,6.78
2022-12-31T05:12:33.738Z,6.75
2022-12-31T05:15:01.588Z,6.45
2022-12-31T05:17:29.895Z,6.52
2022-12-31T05:19:57.890Z,6.90
2022-12-31T05:22:31.915Z,6.76
2022-12-31T05:25:00.741Z,6.67
2022-12-31T05:27:31.243Z,6.67
2022-12-31T05:29:59.826Z,6.40
2022-12-31T05:32:27.493Z,6.58
2022-12-31T05:34:55.435Z,6.46
2022-12-31T05:37:23.083Z,6.26
2022-12-31T05:39:50.611Z,6.54
2022-12-31T05:42:18.543Z,6.25
2022-12-31T05:44:46.066Z,6.55
2022-12-31T05:47:14.633Z,6.42
2022-12-31T05:49:42.864Z,6.36
2022-12-31T05:52:10.969Z,6.60
2022-12-31T05:54:38.597Z,6.61
2022-12-31T05:57:06.761Z,7.03
2022-12-31T05:59:36.218Z,6.82
2022-12-31T06:02:03.860Z,7.03
2022-12-31T06:04:31.908Z,6.64
2022-12-31T06:06:59.545Z,6.83
2022-12-31T06:09:27.256Z,7.23
2022-12-31T06:11:55.167Z,7.21
2022-12-31T06:14:22.755Z,7.09
2022-12-31T06:16:50.380Z,6.84
2022-12-31T06:19:18.291Z,6.82
2022-12-31T06:21:45.870Z,7.11
2022-12-31T06:24:13.492Z,7.13
2022-12-31T06:26:41.429Z,6.94
2022-12-31T06:29:10.482Z,6.94
2022-12-31T06:31:38.395Z,6.89
2022-12-31T06:34:06.371Z,7.35
2022-12-31T06:36:34.041Z,7.46
2022-12-31T06:39:02.085Z,7.07
2022-12-31T06:41:31.537Z,7.33
2022-12-31T06:43:59.177Z,7.37
2022-12-31T06:46:26.785Z,7.01
2022-12-31T06:48:54.890Z,7.26
2022-12-31T06:51:23.084Z,7.45
2022-12-31T06:53:52.036Z,7.05
2022-12-31T06:56:32.989Z,6.99
2022-12-31T06:59:01.418Z,7.30
2022-12-31T07:02:04.657Z,7.32
2022-12-31T07:05:06.639Z,7.25
2022-12-31T07:07:37.661Z,7.18
2022-12-31T07:10:42.617Z,7.46
2022-12-31T07:13:35.775Z,7.59
2022-12-31T07:16:21.006Z,7.69
2022-12-31T07:19:18.878Z,7.81
2022-12-31T07:21:49.690Z,7.66
2022-12-31T07:24:17.943Z,7.77
2022-12-31T07:26:56.990Z,7.78
2022-12-31T07:29:33.073Z,8.01
2022-12-31T07:32:14.797Z,8.11
2022-12-31T07:34:54.495Z,7.99
2022-12-31T07:37:42.412Z,7.77
2022-12-31T07:40:38.210Z,7.90
2022-12-31T07:43:32.993Z,8.10
2022-12-31T07:46:06.947Z,8.04
2022-12-31T07:48:34.923Z,8.22
2022-12-31T07:51:03.294Z,8.21
2022-12-31T07:53:31.542Z,8.18
2022-12-31T07:56:01.885Z,8.22
2022-12-31T07:59:00.805Z,8.19
2022-12-31T08:02:03.258Z,8.35
2022-12-31T08:05:01.154Z,8.32
2022-12-31T08:07:51.758Z,8.62
2022-12-31T08:10:27.282Z,8.84
2022-12-31T08:13:03.926Z,8.64
2022-12-31T08:15:32.294Z,8.78
2022-12-31T08:18:00.035Z,8.57
2022-12-31T08:20:31.363Z,9.08
2022-12-31T08:23:16.745Z,9.26
2022-12-31T08:26:03.025Z,9.08
2022-12-31T08:28:52.243Z,9.20
2022-12-31T08:31:28.377Z,9.39
2022-12-31T08:34:28.680Z,9.31
2022-12-31T08:37:10.711Z,9.52
2022-12-31T08:39:48.558Z,9.78
2022-12-31T08:42:36.956Z,9.79
2022-12-31T08:45:23.476Z,9.74
2022-12-31T08:48:29.282Z,9.87
2022-12-31T08:50:57.854Z,9.96
2022-12-31T08:53:25.748Z,10.38
2022-12-31T08:56:02.943Z,10.30
2022-12-31T08:58:48.723Z,10.29
2022-12-31T09:01:24.487Z,10.24
2022-12-31T09:04:12.219Z,10.32
2022-12-31T09:06:52.048Z,10.37
2022-12-31T09:09:50.557Z,10.81
2022-12-31T09:12:43.493Z,11.09
2022-12-31T09:15:25.240Z,11.44
2022-12-31T09:17:53.393Z,11.21
2022-12-31T09:20:42.973Z,10.84
2022-12-31T09:23:13.242Z,11.29
2022-12-31T09:26:10.278Z,10.90
2022-12-31T09:29:08.732Z,11.13
2022-12-31T09:31:45.255Z,11.52
2022-12-31T09:34:22.643Z,10.75
2022-12-31T09:36:56.078Z,11.15
2022-12-31T09:39:46.299Z,11.01
2022-12-31T09:42:26.764Z,10.81
2022-12-31T09:45:15.481Z,11.42
2022-12-31T09:48:24.348Z,11.48
2022-12-31T09:50:59.647Z,11.30
2022-12-31T09:54:16.179Z,11.27
2022-12-31T09:57:01.917Z,11.91
2022-12-31T09:59:46.321Z,11.97
2022-12-31T10:02:32.717Z,12.04
2022-12-31T10:05:13.006Z,12.15
2022-12-31T10:08:08.878Z,11.96
2022-12-31T10:10:57.965Z,11.54
2022-12-31T10:13:31.309Z,12.02
2022-12-31T10:16:33.199Z,12.26
2022-12-31T10:19:12.685Z,11.42
2022-12-31T10:21:54.719Z,11.85
2022-12-31T10:24:22.286Z,11.64
2022-12-31T10:27:04.695Z,11.68
2022-12-31T10:29:50.041Z,12.04
2022-12-31T10:32:26.248Z,12.17
2022-12-31T10:34:59.752Z,12.48
2022-12-31T10:38:01.318Z,12.31
2022-12-31T10:41:19.609Z,12.40
2022-12-31T10:44:06.822Z,12.55
2022-12-31T10:47:12.110Z,12.02
2022-12-31T10:50:15.247Z,11.91
2022-12-31T10:53:04.058Z,11.86
2022-12-31T10:56:07.901Z,12.14
2022-12-31T10:59:01.627Z,11.85
2022-12-31T11:01:36.771Z,11.73
2022-12-31T11:04:07.159Z,11.68
2022-12-31T11:06:50.218Z,11.26
2022-12-31T11:09:34.730Z,11.56
2022-12-31T11:12:18.719Z,11.21
2022-12-31T11:15:11.290Z,11.30
2022-12-31T11:17:48.605Z,11.52
2022-12-31T11:20:28.274Z,11.37
2022-12-31T11:23:22.250Z,11.07
2022-12-31T11:26:37.236Z,11.49
2022-12-31T11:29:15.478Z,11.77
2022-12-31T11:31:52.536Z,11.18
2022-12-31T11:34:38.416Z,11.47
2022-12-31T11:37:09.052Z,11.38
2022-12-31T11:39:52.047Z,11.44
2022-12-31T11:42:56.622Z,11.41
2022-12-31T11:45:52.108Z,11.75
2022-12-31T11:48:32.678Z,11.75
2022-12-31T11:51:06.631Z,11.65
2022-12-31T11:53:57.460Z,11.74
2022-12-31T11:56:28.414Z,11.75
2022-12-31T11:58:56.562Z,11.19
2022-12-31T12:01:29.847Z,11.67
2022-12-31T12:03:57.878Z,11.63
2022-12-31T12:06:30.093Z,11.63
2022-12-31T12:09:12.557Z,11.63
2022-12-31T12:11:41.093Z,11.35
2022-12-31T12:14:22.965Z,11.54
2022-12-31T12:17:04.261Z,11.56
2022-12-31T12:19:34.957Z,11.74
2022-12-31T12:22:14.315Z,11.89
2022-12-31T12:25:12.111Z,11.49
2022-12-31T12:27:39.737Z,11.68
2022-12-31T12:30:21.928Z,11.44
2022-12-31T12:33:04.779Z,11.35
2022-12-31T12:35:35.193Z,11.45
2022-12-31T12:38:06.451Z,11.41
2022-12-31T12:40:36.497Z,11.35
2022-12-31T12:43:04.166Z,11.31
2022-12-31T12:45:51.889Z,11.56
2022-12-31T12:48:31.177Z,11.60
2022-12-31T12:51:00.374Z,11.70
2022-12-31T12:54:05.203Z,11.76
2022-12-31T12:56:48.448Z,12.01
2022-12-31T12:59:25.904Z,11.57
2022-12-31T13:02:37.655Z,11.45
2022-12-31T13:05:33.084Z,11.45
2022-12-31T13:08:30.494Z,11.27
2022-12-31T13:11:18.324Z,11.37
2022-12-31T13:13:54.886Z,11.92
2022-12-31T13:16:48.350Z,11.69
2022-12-31T13:19:27.695Z,11.68
2022-12-31T13:22:03.416Z,11.36
2022-12-31T13:25:00.980Z,11.56
2022-12-31T13:27:38.461Z,11.86
2022-12-31T13:30:41.419Z,11.78
2022-12-31T13:33:27.900Z,11.86
2022-12-31T13:35:59.003Z,11.81
2022-12-31T13:38:36.247Z,11.79
2022-12-31T13:41:15.062Z,11.87
2022-12-31T13:44:01.309Z,11.72
2022-12-31T13:46:55.439Z,11.95
2022-12-31T13:50:00.567Z,11.82
2022-12-31T13:52:42.460Z,11.57
2022-12-31T13:55:32.642Z,11.76
2022-12-31T13:58:12.576Z,11.77
2022-12-31T14:00:46.488Z,11.65
2022-12-31T14:03:24.761Z,11.57
2022-12-31T14:06:03.378Z,11.62
2022-12-31T14:08:31.296Z,11.50
2022-12-31T14:11:22.941Z,11.62
2022-12-31T14:14:09.152Z,11.32
2022-12-31T14:16:59.639Z,11.77
2022-12-31T14:20:01.690Z,11.68
2022-12-31T14:22:46.540Z,11.82
2022-12-31T14:25:28.702Z,11.66
2022-12-31T14:28:01.834Z,11.56
2022-12-31T14:30:36.686Z,11.57
2022-12-31T14:33:22.673Z,11.68
2022-12-31T14:36:11.864Z,11.85
2022-12-31T14:38:39.956Z,11.80
2022-12-31T14:41:45.647Z,11.90
2022-12-31T14:44:35.057Z,11.75
2022-12-31T14:47:47.581Z,11.89
2022-12-31T14:50:21.226Z,12.18
2022-12-31T14:52:59.608Z,11.86
2022-12-31T14:55:33.781Z,11.74
2022-12-31T14:58:28.334Z,11.55
2022-12-31T15:01:19.076Z,11.40
2022-12-31T15:03:47.312Z,11.44
2022-12-31T15:06:24.052Z,11.63
2022-12-31T15:09:16.524Z,11.59
2022-12-31T15:12:06.790Z,11.43
2022-12-31T15:15:08.244Z,11.21
2022-12-31T15:17:51.132Z,11.30
2022-12-31T15:20:31.124Z,11.45
2022-12-31T15:22:59.221Z,11.56
2022-12-31T15:25:40.437Z,11.33
2022-12-31T15:28:29.506Z,11.65
2022-12-31T15:31:05.883Z,11.54
2022-12-31T15:33:38.557Z,11.77
2022-12-31T15:36:21.590Z,11.55
2022-12-31T15:38:52.398Z,11.14
2022-12-31T15:41:23.382Z,11.10
2022-12-31T15:43:56.458Z,11.66
2022-12-31T15:46:30.511Z,11.52
2022-12-31T15:49:10.271Z,11.44
2022-12-31T15:51:53.377Z,10.90
2022-12-31T15:54:39.885Z,10.96
2022-12-31T15:57:17.169Z,10.76
2022-12-31T15:59:48.039Z,10.86
2022-12-31T16:02:23.605Z,10.71
2022-12-31T16:04:53.148Z,10.80
2022-12-31T16:07:22.257Z,10.75
2022-12-31T16:09:53.545Z,11.10
2022-12-31T16:12:32.783Z,11.06
2022-12-31T16:15:03.777Z,10.84
2022-12-31T16:17:34.502Z,10.75
2022-12-31T16:20:22.052Z,10.80
2022-12-31T16:22:59.161Z,10.36
2022-12-31T16:25:31.072Z,10.54
2022-12-31T16:28:03.004Z,10.51
2022-12-31T16:30:33.829Z,10.42
2022-12-31T16:33:05.511Z,10.48
2022-12-31T16:35:36.420Z,10.29
2022-12-31T16:38:18.667Z,10.23
2022-12-31T16:41:19.651Z,10.57
2022-12-31T16:43:49.421Z,10.75
2022-12-31T16:46:28.880Z,11.02
2022-12-31T16:49:06.718Z,10.45
2022-12-31T16:51:37.564Z,10.50
2022-12-31T16:54:19.424Z,10.41
2022-12-31T16:56:47.321Z,10.72
2022-12-31T16:59:23.384Z,10.51
2022-12-31T17:01:55.954Z,10.60
2022-12-31T17:04:24.649Z,10.69
2022-12-31T17:06:52.450Z,10.54
2022-12-31T17:09:22.418Z,10.68
2022-12-31T17:12:04.039Z,10.89
2022-12-31T17:14:31.579Z,10.70
2022-12-31T17:17:08.307Z,10.81
2022-12-31T17:19:50.704Z,10.68
2022-12-31T17:22:35.812Z,10.77
2022-12-31T17:25:30.481Z,10.49
2022-12-31T17:28:07.115Z,10.49
2022-12-31T17:30:40.153Z,10.25
2022-12-31T17:33:07.973Z,10.15
2022-12-31T17:35:42.112Z,10.02
2022-12-31T17:38:22.101Z,10.48
2022-12-31T17:40:54.492Z,10.22
2022-12-31T17:43:23.670Z,10.44
2022-12-31T17:45:52.258Z,10.35
2022-12-31T17:48:23.090Z,10.35
2022-12-31T17:50:58.281Z,9.96
2022-12-31T17:53:26.113Z,10.18
2022-12-31T17:55:57.327Z,10.35
2022-12-31T17:58:32.026Z,10.64
2022-12-31T18:01:00.594Z,10.61
2022-12-31T18:03:28.617Z,10.26
2022-12-31T18:05:56.188Z,10.22
2022-12-31T18:08:24.270Z,9.91
2022-12-31T18:10:54.074Z,9.87
2022-12-31T18:13:24.780Z,10.19
2022-12-31T18:15:52.975Z,10.20
2022-12-31T18:18:27.261Z,10.09
2022-12-31T18:21:00.177Z,10.24
2022-12-31T18:23:39.118Z,10.48
2022-12-31T18:26:09.585Z,10.21
2022-12-31T18:28:37.257Z,10.41
2022-12-31T18:31:05.188Z,10.35
2022-12-31T18:33:33.126Z,10.40
2022-12-31T18:36:09.505Z,10.18
2022-12-31T18:38:39.331Z,10.21
2022-12-31T18:41:12.063Z,10.38
2022-12-31T18:43:39.883Z,10.36
2022-12-31T18:46:16.229Z,10.31
2022-12-31T18:48:44.433Z,10.11
2022-12-31T18:51:18.556Z,10.30
2022-12-31T18:53:47.053Z,10.34
2022-12-31T18:56:20.358Z,10.40
2022-12-31T18:58:48.410Z,10.47
2022-12-31T19:01:31.759Z,10.43
2022-12-31T19:04:26.990Z,10.33
2022-12-31T19:06:56.584Z,10.50
2022-12-31T19:09:44.519Z,10.52
2022-12-31T19:12:13.784Z,10.28
2022-12-31T19:14:41.972Z,10.15
2022-12-31T19:19:35.994Z,10.45
2022-12-31T19:22:03.947Z,10.09
2022-12-31T19:24:31.877Z,10.40
2022-12-31T19:27:01.354Z,10.12
2022-12-31T19:29:29.259Z,9.85
2022-12-31T19:31:58.257Z,9.84
2022-12-31T19:34:26.036Z,9.92
2022-12-31T19:36:53.855Z,9.98
2022-12-31T19:39:21.714Z,9.95
2022-12-31T19:41:56.586Z,9.91
2022-12-31T19:44:26.641Z,9.69
2022-12-31T19:46:54.182Z,9.92
2022-12-31T19:49:22.011Z,9.82
2022-12-31T19:51:49.878Z,10.04
2022-12-31T19:54:17.610Z,9.96
2022-12-31T19:56:45.140Z,9.68
2022-12-31T19:59:12.971Z,9.93
2022-12-31T20:01:40.622Z,9.92
2022-12-31T20:04:08.715Z,9.78
2022-12-31T20:06:36.260Z,9.77
2022-12-31T20:09:04.115Z,10.09
2022-12-31T20:11:32.024Z,9.71
2022-12-31T20:13:59.688Z,9.91
2022-12-31T20:16:29.701Z,9.84
2022-12-31T20:18:57.847Z,9.88
2022-12-31T20:21:28.132Z,10.07
2022-12-31T20:23:56.223Z,9.92
2022-12-31T20:26:25.074Z,9.95
2022-12-31T20:28:53.415Z,10.00
2022-12-31T20:31:23.976Z,9.74
2022-12-31T20:33:54.128Z,9.94
2022-12-31T20:36:23.019Z,9.87
2022-12-31T20:38:50.667Z,9.96
2022-12-31T20:41:21.373Z,9.67
2022-12-31T20:43:49.840Z,9.51
2022-12-31T20:46:20.305Z,9.65
2022-12-31T20:48:50.214Z,9.72
2022-12-31T20:51:19.051Z,9.68
2022-12-31T20:53:49.976Z,9.49
2022-12-31T20:56:18.591Z,9.62
2022-12-31T20:58:46.559Z,9.92
2022-12-31T21:01:15.128Z,9.74
2022-12-31T21:06:33.588Z,10.10
2022-12-31T21:09:03.121Z,9.77
2022-12-31T21:11:49.548Z,9.94
2022-12-31T21:14:17.542Z,9.81
2022-12-31T21:16:45.415Z,9.96
2022-12-31T21:19:13.117Z,9.63
2022-12-31T21:21:41.010Z,9.61
2022-12-31T21:24:08.923Z,9.95
2022-12-31T21:26:36.596Z,9.65
2022-12-31T21:29:04.389Z,9.69
2022-12-31T21:31:32.584Z,9.45
2022-12-31T21:34:00.211Z,9.39
2022-12-31T21:36:28.239Z,9.60
2022-12-31T21:38:55.854Z,9.68
2022-12-31T21:41:42.401Z,9.67
2022-12-31T21:44:10.520Z,9.74
2022-12-31T21:46:38.239Z,9.66
2022-12-31T21:49:05.864Z,9.53
2022-12-31T21:51:53.662Z,9.45
2022-12-31T21:54:41.260Z,9.34
2022-12-31T21:57:09.433Z,9.40
2022-12-31T22:00:24.078Z,9.29
2022-12-31T22:03:02.315Z,9.43
2022-12-31T22:05:30.121Z,9.50
2022-12-31T22:07:58.186Z,9.31
2022-12-31T22:10:25.882Z,9.40
2022-12-31T22:12:53.503Z,9.18
2022-12-31T22:15:21.476Z,9.34
2022-12-31T22:17:49.332Z,9.56
2022-12-31T22:20:27.188Z,9.38
2022-12-31T22:22:55.701Z,9.43
2022-12-31T22:25:23.347Z,9.56
2022-12-31T22:28:19.341Z,9.35
2022-12-31T22:30:39.478Z,9.26
2022-12-31T22:33:07.101Z,9.60
2022-12-31T22:35:34.677Z,9.43
2022-12-31T22:38:09.896Z,9.55
2022-12-31T22:40:39.493Z,9.18
2022-12-31T22:43:07.397Z,9.22
2022-12-31T22:45:36.386Z,9.43
2022-12-31T22:48:04.290Z,9.21
2022-12-31T22:50:32.290Z,9.13
2022-12-31T22:53:01.326Z,9.09
2022-12-31T22:55:28.940Z,9.42
2022-12-31T22:57:56.863Z,8.90
2022-12-31T23:00:38.713Z,9.14
2022-12-31T23:03:07.943Z,9.12
2022-12-31T23:05:35.587Z,9.31
2022-12-31T23:08:09.441Z,9.16
2022-12-31T23:11:05.907Z,9.31
2022-12-31T23:14:00.639Z,9.14
2022-12-31T23:16:48.435Z,8.93
2022-12-31T23:19:35.037Z,9.05
2022-12-31T23:22:21.426Z,8.98
2022-12-31T23:24:48.993Z,9.35
2022-12-31T23:27:16.859Z,9.30
2022-12-31T23:29:47.399Z,9.00
2022-12-31T23:32:16.606Z,9.02
2022-12-31T23:34:45.798Z,8.87
2022-12-31T23:37:14.513Z,9.03
2022-12-31T23:39:42.732Z,9.01
2022-12-31T23:42:10.744Z,9.13
2022-12-31T23:44:38.536Z,8.89
2022-12-31T23:47:06.249Z,9.05
2022-12-31T23:49:34.200Z,9.01
2022-12-31T23:52:01.865Z,8.94
2022-12-31T23:54:29.486Z,8.94
2022-12-31T23:56:57.389Z,8.82
2022-12-31T23:59:24.931Z,8.90
